Time;durP1;ratioP1;P1;durP2;ratioP2;P2;SDS_P1;SDS_P2;PMS_P1;PMS_P2;Temp;Humidity;BMP_temperature;BMP_pressure;BME280_temperature;BME280_humidity;BME280_pressure;Samples;Min_cycle;Max_cycle;Signal;HPM_P1;HPM_P2
2021/12/26 00:01:22;;;;;;;68.20;9.55;;;;;;;;;;5071091;28;20312;-65
2021/12/26 00:03:50;;;;;;;69.18;10.30;;;;;;;;;;5072178;28;20291;-65
2021/12/26 00:06:18;;;;;;;67.47;9.13;;;;;;;;;;5075440;28;20588;-64
2021/12/26 00:08:46;;;;;;;69.38;9.70;;;;;;;;;;5074994;28;20207;-64
2021/12/26 00:11:13;;;;;;;71.18;10.68;;;;;;;;;;5074754;28;20295;-64
2021/12/26 00:13:42;;;;;;;69.25;10.60;;;;;;;;;;5074899;28;20231;-65
2021/12/26 00:16:09;;;;;;;68.78;10.65;;;;;;;;;;5075084;28;20691;-64
2021/12/26 00:18:37;;;;;;;71.20;11.45;;;;;;;;;;5074852;28;20307;-64
2021/12/26 00:21:04;;;;;;;66.63;10.07;;;;;;;;;;5075343;28;20227;-65
2021/12/26 00:23:32;;;;;;;68.88;10.57;;;;;;;;;;5074702;28;20215;-64
2021/12/26 00:25:59;;;;;;;70.60;11.15;;;;;;;;;;5075142;28;20295;-64
2021/12/26 00:28:27;;;;;;;67.78;9.70;;;;;;;;;;5074716;28;20313;-65
2021/12/26 00:30:56;;;;;;;66.47;9.68;;;;;;;;;;5074744;28;20225;-64
2021/12/26 00:33:23;;;;;;;67.63;9.25;;;;;;;;;;5074424;28;20205;-64
2021/12/26 00:35:51;;;;;;;69.45;10.32;;;;;;;;;;5073247;28;20309;-65
2021/12/26 00:38:18;;;;;;;70.40;9.90;;;;;;;;;;5074809;28;20293;-64
2021/12/26 00:40:46;;;;;;;69.00;8.73;;;;;;;;;;5074680;28;20225;-64
2021/12/26 00:43:13;;;;;;;67.00;10.13;;;;;;;;;;5062956;28;20285;-64
2021/12/26 00:45:41;;;;;;;66.95;9.98;;;;;;;;;;5054623;28;20239;-64
2021/12/26 00:48:09;;;;;;;68.93;10.25;;;;;;;;;;5054314;28;20213;-64
2021/12/26 00:50:38;;;;;;;66.70;9.50;;;;;;;;;;5054163;28;20236;-64
2021/12/26 00:53:06;;;;;;;68.13;10.20;;;;;;;;;;5054516;28;20580;-65
2021/12/26 00:55:33;;;;;;;69.00;9.80;;;;;;;;;;5054331;28;20267;-65
2021/12/26 00:58:00;;;;;;;66.82;9.35;;;;;;;;;;5054174;28;20208;-64
2021/12/26 01:00:29;;;;;;;66.72;9.40;;;;;;;;;;5054153;28;20253;-64
2021/12/26 01:02:57;;;;;;;67.78;8.98;;;;;;;;;;5054162;28;20212;-64
2021/12/26 01:05:27;;;;;;;66.18;8.50;;;;;;;;;;5054410;28;20296;-64
2021/12/26 01:07:58;;;;;;;67.70;9.07;;;;;;;;;;5052456;28;20209;-64
2021/12/26 01:10:26;;;;;;;69.80;10.40;;;;;;;;;;5054068;28;20299;-64
2021/12/26 01:12:54;;;;;;;68.88;9.65;;;;;;;;;;5053925;28;20229;-65
2021/12/26 01:15:22;;;;;;;68.47;10.23;;;;;;;;;;5053047;28;20213;-64
2021/12/26 01:17:55;;;;;;;67.55;9.10;;;;;;;;;;5053364;28;20241;-65
2021/12/26 01:20:37;;;;;;;67.72;8.73;;;;;;;;;;5053790;28;20225;-64
2021/12/26 01:23:06;;;;;;;69.40;10.10;;;;;;;;;;5054080;28;20241;-65
2021/12/26 01:25:33;;;;;;;67.03;8.70;;;;;;;;;;5053824;28;20770;-65
2021/12/26 01:28:00;;;;;;;69.22;10.20;;;;;;;;;;5053480;28;20210;-65
2021/12/26 01:30:27;;;;;;;68.13;10.27;;;;;;;;;;5053955;28;20320;-64
2021/12/26 01:32:55;;;;;;;66.68;9.70;;;;;;;;;;5053601;28;20296;-64
2021/12/26 01:35:22;;;;;;;67.63;9.50;;;;;;;;;;5053762;28;20296;-64
2021/12/26 01:37:49;;;;;;;69.07;9.35;;;;;;;;;;5053202;28;20301;-65
2021/12/26 01:40:17;;;;;;;64.82;8.20;;;;;;;;;;5067890;28;20251;-64
2021/12/26 01:42:45;;;;;;;65.45;8.70;;;;;;;;;;5073215;28;20205;-64
2021/12/26 01:45:12;;;;;;;64.32;7.90;;;;;;;;;;5073438;28;20200;-64
2021/12/26 01:47:39;;;;;;;65.50;8.13;;;;;;;;;;5073342;28;20295;-64
2021/12/26 01:50:07;;;;;;;65.28;8.30;;;;;;;;;;5073222;28;20717;-64
2021/12/26 01:52:35;;;;;;;64.45;7.47;;;;;;;;;;5073278;28;20233;-65
2021/12/26 01:55:21;;;;;;;64.60;7.40;;;;;;;;;;5073248;28;20212;-64
2021/12/26 01:57:50;;;;;;;64.45;7.50;;;;;;;;;;5072980;28;20200;-65
2021/12/26 02:00:18;;;;;;;66.13;8.15;;;;;;;;;;5073242;28;20467;-65
2021/12/26 02:02:45;;;;;;;68.22;9.15;;;;;;;;;;5071026;28;20287;-65
2021/12/26 02:05:12;;;;;;;67.30;9.68;;;;;;;;;;5052210;28;20209;-64
2021/12/26 02:07:39;;;;;;;67.38;9.38;;;;;;;;;;5052798;28;20205;-65
2021/12/26 02:10:07;;;;;;;68.85;9.98;;;;;;;;;;5053129;28;20248;-64
2021/12/26 02:12:34;;;;;;;67.40;9.20;;;;;;;;;;5051645;28;20313;-64
2021/12/26 02:15:04;;;;;;;69.90;10.70;;;;;;;;;;5052927;28;20209;-64
2021/12/26 02:17:31;;;;;;;69.35;10.32;;;;;;;;;;5052449;28;20205;-64
2021/12/26 02:20:30;;;;;;;69.05;10.20;;;;;;;;;;5052792;28;20597;-64
2021/12/26 02:23:05;;;;;;;69.47;10.73;;;;;;;;;;5019415;28;20292;-65
2021/12/26 02:27:31;;;;;;;67.25;10.25;;;;;;;;;;5052681;28;20205;-64
2021/12/26 02:28:20;;;;;;;68.00;9.10;;;;;;;;;;5052162;28;20205;-64
2021/12/26 02:30:48;;;;;;;70.85;10.07;;;;;;;;;;5052636;28;20225;-63
2021/12/26 02:33:16;;;;;;;67.32;10.05;;;;;;;;;;5052596;28;20201;-65
2021/12/26 02:35:44;;;;;;;67.63;9.18;;;;;;;;;;5052560;28;20207;-64
2021/12/26 02:38:14;;;;;;;67.28;9.35;;;;;;;;;;5052051;28;20212;-64
2021/12/26 02:40:41;;;;;;;67.00;8.70;;;;;;;;;;5052596;28;20244;-64
2021/12/26 02:43:09;;;;;;;69.10;10.30;;;;;;;;;;5055293;28;20308;-64
2021/12/26 02:45:36;;;;;;;67.30;9.67;;;;;;;;;;5072396;28;20233;-65
2021/12/26 02:48:04;;;;;;;66.00;8.55;;;;;;;;;;5071870;28;20501;-64
2021/12/26 02:50:32;;;;;;;67.38;9.73;;;;;;;;;;5072065;28;20311;-64
2021/12/26 02:53:00;;;;;;;67.82;9.82;;;;;;;;;;5057289;28;20226;-64
2021/12/26 02:55:29;;;;;;;70.75;9.40;;;;;;;;;;5052377;28;20605;-65
2021/12/26 02:57:57;;;;;;;66.05;8.70;;;;;;;;;;5051958;28;20205;-64
2021/12/26 03:00:25;;;;;;;68.10;9.77;;;;;;;;;;5052097;28;20400;-64
2021/12/26 03:02:54;;;;;;;66.50;8.68;;;;;;;;;;5052072;28;20208;-64
2021/12/26 03:05:21;;;;;;;71.35;10.32;;;;;;;;;;5051747;28;20581;-64
2021/12/26 03:07:49;;;;;;;69.03;10.80;;;;;;;;;;5051617;28;20205;-66
2021/12/26 03:10:21;;;;;;;67.70;9.35;;;;;;;;;;5051988;28;20222;-64
2021/12/26 03:12:51;;;;;;;68.57;9.52;;;;;;;;;;5051791;28;20308;-65
2021/12/26 03:15:18;;;;;;;69.95;9.98;;;;;;;;;;5052353;28;20624;-64
2021/12/26 03:17:45;;;;;;;68.47;9.52;;;;;;;;;;5071403;28;20291;-65
2021/12/26 03:20:14;;;;;;;66.97;9.48;;;;;;;;;;5071745;28;20316;-64
2021/12/26 03:22:41;;;;;;;66.78;9.07;;;;;;;;;;5071646;28;20201;-64
2021/12/26 03:25:12;;;;;;;71.97;11.80;;;;;;;;;;5071755;28;20297;-64
2021/12/26 03:27:39;;;;;;;69.90;10.23;;;;;;;;;;5071551;28;20212;-64
2021/12/26 03:30:08;;;;;;;66.93;9.95;;;;;;;;;;5071675;28;20226;-64
2021/12/26 03:32:36;;;;;;;68.80;9.65;;;;;;;;;;5071370;28;20260;-64
2021/12/26 03:35:03;;;;;;;68.57;10.45;;;;;;;;;;5071586;28;20794;-64
2021/12/26 03:37:30;;;;;;;71.95;10.98;;;;;;;;;;5070706;28;20676;-64
2021/12/26 03:39:58;;;;;;;69.93;10.30;;;;;;;;;;5071656;28;20228;-65
2021/12/26 03:42:25;;;;;;;70.63;11.15;;;;;;;;;;5071582;28;20207;-64
2021/12/26 03:44:53;;;;;;;68.63;9.25;;;;;;;;;;5071560;28;20873;-64
2021/12/26 03:47:21;;;;;;;68.00;10.38;;;;;;;;;;5064807;28;20225;-64
2021/12/26 03:49:49;;;;;;;70.38;11.02;;;;;;;;;;5051839;28;20295;-65
2021/12/26 03:52:17;;;;;;;71.65;10.65;;;;;;;;;;5051518;28;20298;-64
2021/12/26 03:54:45;;;;;;;70.25;10.63;;;;;;;;;;5051487;28;20753;-65
2021/12/26 03:57:12;;;;;;;71.20;11.82;;;;;;;;;;5051200;28;20216;-65
2021/12/26 03:59:39;;;;;;;72.32;11.60;;;;;;;;;;5051396;28;20209;-65
2021/12/26 04:02:06;;;;;;;69.20;10.18;;;;;;;;;;5051626;28;20584;-65
2021/12/26 04:04:35;;;;;;;71.43;9.88;;;;;;;;;;5051535;28;20211;-64
2021/12/26 04:07:02;;;;;;;67.45;9.23;;;;;;;;;;5051456;28;20301;-65
2021/12/26 04:09:29;;;;;;;69.47;10.13;;;;;;;;;;5051230;28;20212;-64
2021/12/26 04:11:57;;;;;;;73.40;11.93;;;;;;;;;;5050918;28;20233;-65
2021/12/26 04:14:24;;;;;;;69.60;10.70;;;;;;;;;;5051393;28;20202;-65
2021/12/26 04:16:51;;;;;;;73.25;11.45;;;;;;;;;;5051383;28;20292;-65
2021/12/26 04:19:18;;;;;;;68.90;9.57;;;;;;;;;;5057924;28;20653;-64
2021/12/26 04:21:47;;;;;;;71.25;11.50;;;;;;;;;;5071673;28;20221;-64
2021/12/26 04:24:14;;;;;;;71.85;11.90;;;;;;;;;;5071160;28;20201;-65
2021/12/26 04:26:41;;;;;;;72.35;11.02;;;;;;;;;;5071078;28;20329;-65
2021/12/26 04:29:09;;;;;;;70.00;10.30;;;;;;;;;;5070794;28;20239;-65
2021/12/26 04:31:36;;;;;;;72.10;12.25;;;;;;;;;;5071129;28;20236;-65
2021/12/26 04:34:03;;;;;;;74.00;12.40;;;;;;;;;;5071181;28;20200;-65
2021/12/26 04:36:31;;;;;;;67.15;9.60;;;;;;;;;;5071064;28;20244;-65
2021/12/26 04:38:59;;;;;;;72.63;12.57;;;;;;;;;;5070720;28;20249;-64
2021/12/26 04:41:27;;;;;;;74.00;11.65;;;;;;;;;;5070856;28;20321;-65
2021/12/26 04:43:54;;;;;;;71.80;11.48;;;;;;;;;;5071139;28;20640;-65
2021/12/26 04:46:21;;;;;;;69.68;11.50;;;;;;;;;;5070959;28;20879;-64
2021/12/26 04:48:48;;;;;;;75.95;13.00;;;;;;;;;;5070663;28;20300;-65
2021/12/26 04:51:15;;;;;;;71.47;11.98;;;;;;;;;;5071875;28;20249;-65
2021/12/26 04:53:42;;;;;;;71.93;11.20;;;;;;;;;;5074131;28;20227;-64
2021/12/26 04:56:11;;;;;;;72.57;11.45;;;;;;;;;;5074494;28;20205;-64
2021/12/26 04:58:38;;;;;;;71.30;11.57;;;;;;;;;;5074055;28;20295;-64
2021/12/26 05:01:06;;;;;;;73.82;12.60;;;;;;;;;;5074099;28;20260;-65
2021/12/26 05:03:33;;;;;;;74.10;11.85;;;;;;;;;;5074310;28;20215;-64
2021/12/26 05:06:01;;;;;;;72.65;10.95;;;;;;;;;;5074270;28;20298;-65
2021/12/26 05:08:28;;;;;;;73.03;11.95;;;;;;;;;;5073932;28;20219;-65
2021/12/26 05:10:56;;;;;;;71.72;12.70;;;;;;;;;;5074283;28;20320;-65
2021/12/26 05:13:25;;;;;;;73.70;11.50;;;;;;;;;;5073947;28;20697;-64
2021/12/26 05:15:52;;;;;;;75.85;12.45;;;;;;;;;;5074005;28;20809;-65
2021/12/26 05:18:19;;;;;;;75.82;11.65;;;;;;;;;;5073785;28;20211;-65
2021/12/26 05:20:46;;;;;;;71.40;10.85;;;;;;;;;;5073551;28;20231;-65
2021/12/26 05:23:13;;;;;;;71.57;11.57;;;;;;;;;;5072090;28;20213;-65
2021/12/26 05:25:40;;;;;;;72.57;11.75;;;;;;;;;;5073877;28;20201;-65
2021/12/26 05:28:08;;;;;;;73.65;12.73;;;;;;;;;;5073649;28;20205;-65
2021/12/26 05:30:36;;;;;;;71.85;11.55;;;;;;;;;;5073769;28;20311;-65
2021/12/26 05:33:03;;;;;;;74.35;11.73;;;;;;;;;;5073565;28;20223;-64
2021/12/26 05:35:31;;;;;;;77.72;13.70;;;;;;;;;;5074065;28;20215;-66
2021/12/26 05:37:59;;;;;;;72.68;11.95;;;;;;;;;;5073495;28;20727;-65
2021/12/26 05:40:26;;;;;;;73.75;12.65;;;;;;;;;;5073521;28;20315;-65
2021/12/26 05:42:53;;;;;;;72.32;11.35;;;;;;;;;;5073437;28;20202;-64
2021/12/26 05:45:21;;;;;;;75.15;11.95;;;;;;;;;;5073606;28;20292;-64
2021/12/26 05:47:49;;;;;;;74.93;13.13;;;;;;;;;;5073071;28;20293;-64
2021/12/26 05:50:17;;;;;;;73.45;12.15;;;;;;;;;;5073540;28;20316;-65
2021/12/26 05:52:45;;;;;;;70.78;11.77;;;;;;;;;;5073183;28;20316;-65
2021/12/26 05:55:12;;;;;;;74.97;12.77;;;;;;;;;;5071408;28;20278;-64
2021/12/26 05:57:39;;;;;;;71.03;12.30;;;;;;;;;;5072956;28;20205;-65
2021/12/26 06:00:08;;;;;;;76.25;12.85;;;;;;;;;;5072847;28;20221;-65
2021/12/26 06:02:35;;;;;;;73.75;12.90;;;;;;;;;;5073323;28;20211;-66
2021/12/26 06:05:04;;;;;;;76.38;13.63;;;;;;;;;;5073235;28;20211;-64
2021/12/26 06:07:31;;;;;;;73.68;12.00;;;;;;;;;;5072770;28;20205;-65
2021/12/26 06:09:58;;;;;;;75.45;12.45;;;;;;;;;;5073063;28;20225;-65
2021/12/26 06:12:25;;;;;;;72.50;11.27;;;;;;;;;;5073065;28;20227;-65
2021/12/26 06:14:52;;;;;;;75.03;12.88;;;;;;;;;;5073280;28;20292;-65
2021/12/26 06:17:20;;;;;;;72.70;11.80;;;;;;;;;;5072580;28;20205;-66
2021/12/26 06:19:47;;;;;;;73.60;11.77;;;;;;;;;;5072867;28;20205;-65
2021/12/26 06:22:16;;;;;;;74.18;12.38;;;;;;;;;;5072860;28;20223;-65
2021/12/26 06:24:43;;;;;;;71.57;11.55;;;;;;;;;;5072565;28;20212;-65
2021/12/26 06:27:10;;;;;;;72.78;13.13;;;;;;;;;;5070292;28;20296;-65
2021/12/26 06:29:38;;;;;;;74.15;12.30;;;;;;;;;;5072329;28;20212;-64
2021/12/26 06:32:05;;;;;;;71.40;12.10;;;;;;;;;;5072641;28;20295;-65
2021/12/26 06:34:32;;;;;;;72.40;11.93;;;;;;;;;;5072439;28;20200;-65
2021/12/26 06:37:00;;;;;;;72.85;12.15;;;;;;;;;;5072387;28;20205;-64
2021/12/26 06:39:28;;;;;;;73.30;11.95;;;;;;;;;;5072223;28;20201;-65
2021/12/26 06:41:55;;;;;;;73.32;11.88;;;;;;;;;;5072044;28;20313;-65
2021/12/26 06:44:23;;;;;;;70.75;11.13;;;;;;;;;;5072374;28;20210;-65
2021/12/26 06:46:50;;;;;;;72.93;11.90;;;;;;;;;;5072376;28;20212;-64
2021/12/26 06:49:18;;;;;;;73.55;12.48;;;;;;;;;;5072123;28;20301;-65
2021/12/26 06:51:46;;;;;;;71.30;11.82;;;;;;;;;;5072104;28;20636;-65
2021/12/26 06:54:13;;;;;;;76.85;11.95;;;;;;;;;;5071975;28;20234;-65
2021/12/26 06:56:41;;;;;;;72.38;11.35;;;;;;;;;;5071716;28;20296;-64
2021/12/26 06:59:08;;;;;;;76.43;13.40;;;;;;;;;;5069993;28;20296;-64
2021/12/26 07:01:36;;;;;;;75.75;13.80;;;;;;;;;;5072037;28;20235;-64
2021/12/26 07:04:03;;;;;;;74.30;14.00;;;;;;;;;;5071991;28;20291;-65
2021/12/26 07:06:30;;;;;;;76.88;14.15;;;;;;;;;;5071746;28;20301;-64
2021/12/26 07:08:57;;;;;;;75.32;13.25;;;;;;;;;;5071590;28;20296;-64
2021/12/26 07:11:24;;;;;;;75.05;13.20;;;;;;;;;;5071701;28;20251;-63
2021/12/26 07:13:53;;;;;;;73.13;12.80;;;;;;;;;;5070960;28;20236;-64
2021/12/26 07:16:20;;;;;;;75.00;13.20;;;;;;;;;;5072010;28;20205;-64
2021/12/26 07:18:47;;;;;;;72.53;12.13;;;;;;;;;;5071299;28;20303;-63
2021/12/26 07:21:14;;;;;;;77.72;13.80;;;;;;;;;;5071617;28;20228;-64
2021/12/26 07:23:41;;;;;;;77.35;13.02;;;;;;;;;;5071361;28;20203;-66
2021/12/26 07:26:08;;;;;;;77.60;13.27;;;;;;;;;;5072017;28;20307;-65
2021/12/26 07:28:36;;;;;;;79.18;14.93;;;;;;;;;;5068607;28;20759;-66
2021/12/26 07:31:04;;;;;;;76.50;13.18;;;;;;;;;;5071498;28;20229;-65
2021/12/26 07:33:32;;;;;;;76.57;13.77;;;;;;;;;;5071354;28;20671;-64
2021/12/26 07:35:59;;;;;;;78.18;13.07;;;;;;;;;;5071182;28;20295;-65
2021/12/26 07:38:26;;;;;;;77.60;14.57;;;;;;;;;;5071432;28;20212;-65
2021/12/26 07:40:53;;;;;;;86.28;15.95;;;;;;;;;;5071664;28;20229;-65
2021/12/26 07:43:20;;;;;;;79.82;14.68;;;;;;;;;;5071050;28;20205;-65
2021/12/26 07:45:47;;;;;;;80.50;17.42;;;;;;;;;;5071439;28;20201;-64
2021/12/26 07:48:16;;;;;;;79.38;16.05;;;;;;;;;;5071248;28;20673;-64
2021/12/26 07:50:43;;;;;;;81.15;14.10;;;;;;;;;;5070925;28;20796;-64
2021/12/26 07:53:11;;;;;;;77.05;13.10;;;;;;;;;;5070741;28;20235;-65
2021/12/26 07:55:40;;;;;;;75.07;13.43;;;;;;;;;;5071557;28;20204;-65
2021/12/26 07:58:07;;;;;;;78.55;15.65;;;;;;;;;;5071262;28;20206;-65
2021/12/26 08:00:35;;;;;;;79.75;15.10;;;;;;;;;;5070611;28;20231;-66
2021/12/26 08:03:02;;;;;;;76.72;14.18;;;;;;;;;;5070342;28;20651;-65
2021/12/26 08:05:31;;;;;;;76.15;13.98;;;;;;;;;;5070975;28;20296;-64
2021/12/26 08:07:58;;;;;;;75.50;13.65;;;;;;;;;;5070691;28;20211;-64
2021/12/26 08:10:26;;;;;;;73.65;13.77;;;;;;;;;;5071040;28;20728;-64
2021/12/26 08:12:53;;;;;;;72.18;12.13;;;;;;;;;;5070880;28;20607;-65
2021/12/26 08:15:20;;;;;;;75.45;12.65;;;;;;;;;;5071183;28;20765;-64
2021/12/26 08:17:47;;;;;;;73.22;12.13;;;;;;;;;;5070803;28;20215;-65
2021/12/26 08:20:14;;;;;;;73.40;12.02;;;;;;;;;;5070790;28;20313;-64
2021/12/26 08:22:43;;;;;;;79.15;13.25;;;;;;;;;;5071035;28;20293;-65
2021/12/26 08:25:11;;;;;;;75.15;11.55;;;;;;;;;;5074442;28;20213;-65
2021/12/26 08:27:38;;;;;;;73.03;12.40;;;;;;;;;;5074514;28;20202;-64
2021/12/26 08:30:07;;;;;;;73.55;12.32;;;;;;;;;;5074914;28;20235;-65
2021/12/26 08:32:36;;;;;;;77.75;13.20;;;;;;;;;;5072905;28;20211;-66
2021/12/26 08:35:06;;;;;;;73.28;12.82;;;;;;;;;;5074457;28;20685;-65
2021/12/26 08:37:33;;;;;;;74.18;11.80;;;;;;;;;;5074243;28;20209;-65
2021/12/26 08:40:02;;;;;;;74.13;12.25;;;;;;;;;;5074679;28;20322;-64
2021/12/26 08:42:29;;;;;;;74.80;12.82;;;;;;;;;;5074612;28;20231;-64
2021/12/26 08:44:59;;;;;;;75.68;13.57;;;;;;;;;;5074469;28;20206;-64
2021/12/26 08:47:26;;;;;;;77.88;13.18;;;;;;;;;;5074838;28;20212;-64
2021/12/26 08:49:53;;;;;;;77.57;14.90;;;;;;;;;;5074412;28;20296;-64
2021/12/26 08:52:21;;;;;;;75.72;12.70;;;;;;;;;;5073938;28;20296;-65
2021/12/26 08:54:48;;;;;;;74.10;13.48;;;;;;;;;;5074327;28;20230;-66
2021/12/26 08:57:16;;;;;;;73.78;13.80;;;;;;;;;;5074141;28;20201;-64
2021/12/26 08:59:44;;;;;;;76.22;13.60;;;;;;;;;;5074140;28;20536;-65
2021/12/26 09:02:11;;;;;;;76.25;13.85;;;;;;;;;;5074275;28;20299;-65
2021/12/26 09:04:39;;;;;;;79.38;14.30;;;;;;;;;;5073083;28;20570;-66
2021/12/26 09:07:07;;;;;;;76.05;13.52;;;;;;;;;;5053027;28;20206;-67
2021/12/26 09:09:34;;;;;;;74.72;14.15;;;;;;;;;;5054203;28;20606;-65
2021/12/26 09:12:02;;;;;;;74.40;13.60;;;;;;;;;;5053632;28;20237;-64
2021/12/26 09:14:31;;;;;;;80.03;15.93;;;;;;;;;;5054288;28;20572;-65
2021/12/26 09:16:59;;;;;;;79.20;14.88;;;;;;;;;;5053893;28;20937;-65
2021/12/26 09:19:28;;;;;;;73.25;13.90;;;;;;;;;;5053307;28;20562;-64
2021/12/26 09:21:55;;;;;;;74.82;12.60;;;;;;;;;;5053608;28;20296;-65
2021/12/26 09:24:23;;;;;;;76.70;11.77;;;;;;;;;;5053210;28;20213;-66
2021/12/26 09:26:50;;;;;;;77.18;14.02;;;;;;;;;;5053648;28;20536;-65
2021/12/26 09:29:17;;;;;;;76.63;13.50;;;;;;;;;;5053874;28;20210;-65
2021/12/26 09:31:46;;;;;;;73.40;12.57;;;;;;;;;;5053863;28;20231;-65
2021/12/26 09:34:13;;;;;;;74.97;12.43;;;;;;;;;;5053589;28;21008;-65
2021/12/26 09:36:40;;;;;;;74.90;13.20;;;;;;;;;;5051847;28;20890;-64
2021/12/26 09:39:07;;;;;;;76.73;12.83;;;;;;;;;;5053342;28;20214;-65
2021/12/26 09:41:35;;;;;;;72.70;12.60;;;;;;;;;;5053749;28;20464;-65
2021/12/26 09:44:02;;;;;;;77.10;14.18;;;;;;;;;;5053602;28;20451;-65
2021/12/26 09:46:29;;;;;;;71.10;12.40;;;;;;;;;;5053574;28;20767;-65
2021/12/26 09:48:58;;;;;;;72.82;13.13;;;;;;;;;;5053332;28;20547;-65
2021/12/26 09:51:25;;;;;;;76.57;13.37;;;;;;;;;;5053907;28;20227;-65
2021/12/26 09:53:52;;;;;;;75.73;13.77;;;;;;;;;;5053144;28;20478;-65
2021/12/26 09:56:20;;;;;;;74.50;12.20;;;;;;;;;;5053243;28;20534;-66
2021/12/26 09:58:54;;;;;;;76.40;12.50;;;;;;;;;;5053238;28;20826;-65
2021/12/26 10:01:28;;;;;;;70.80;12.20;;;;;;;;;;5053197;28;20470;-64
2021/12/26 10:03:57;;;;;;;72.07;11.63;;;;;;;;;;5053566;28;20448;-66
2021/12/26 10:06:25;;;;;;;71.17;10.80;;;;;;;;;;5053165;28;20450;-65
2021/12/26 10:08:54;;;;;;;69.57;10.00;;;;;;;;;;5051638;28;20996;-64
2021/12/26 10:11:22;;;;;;;68.70;10.75;;;;;;;;;;5052903;28;20984;-64
2021/12/26 10:13:50;;;;;;;68.10;10.37;;;;;;;;;;5053050;28;20319;-64
2021/12/26 10:16:18;;;;;;;69.00;9.15;;;;;;;;;;5053020;28;20444;-65
2021/12/26 10:18:46;;;;;;;68.00;8.93;;;;;;;;;;5052505;28;20203;-64
2021/12/26 10:21:31;;;;;;;65.80;8.47;;;;;;;;;;5052834;28;20467;-65
2021/12/26 10:24:00;;;;;;;64.87;8.00;;;;;;;;;;5052715;28;20533;-65
2021/12/26 10:26:29;;;;;;;64.70;7.23;;;;;;;;;;5052877;28;20453;-64
2021/12/26 10:29:10;;;;;;;66.03;8.40;;;;;;;;;;5052340;28;20454;-64
2021/12/26 10:31:38;;;;;;;65.10;8.43;;;;;;;;;;5052794;28;20463;-65
2021/12/26 10:34:06;;;;;;;63.80;7.50;;;;;;;;;;5052638;28;20597;-65
2021/12/26 10:36:42;;;;;;;63.93;7.10;;;;;;;;;;5052752;28;20447;-65
2021/12/26 10:39:12;;;;;;;66.13;7.10;;;;;;;;;;5050727;28;20459;-64
2021/12/26 10:41:41;;;;;;;66.05;8.00;;;;;;;;;;5052311;28;20483;-65
2021/12/26 10:44:08;;;;;;;73.20;11.97;;;;;;;;;;5052696;28;20214;-65
2021/12/26 10:46:38;;;;;;;68.50;7.93;;;;;;;;;;5052595;28;20829;-65
2021/12/26 10:49:24;;;;;;;69.43;8.45;;;;;;;;;;5052194;28;20860;-65
2021/12/26 10:51:53;;;;;;;63.53;7.00;;;;;;;;;;5052179;28;20320;-65
2021/12/26 10:54:21;;;;;;;62.15;6.32;;;;;;;;;;5052100;28;20236;-64
2021/12/26 10:57:02;;;;;;;62.80;6.70;;;;;;;;;;5052464;28;20446;-65
2021/12/26 10:59:30;;;;;;;64.13;7.60;;;;;;;;;;5052144;28;20455;-65
2021/12/26 11:01:57;;;;;;;65.23;7.40;;;;;;;;;;5052094;28;20466;-64
2021/12/26 11:04:24;;;;;;;62.60;7.60;;;;;;;;;;5052009;28;20888;-65
2021/12/26 11:07:03;;;;;;;64.17;7.30;;;;;;;;;;5051954;28;20488;-65
2021/12/26 11:09:30;;;;;;;66.10;8.67;;;;;;;;;;5051800;28;20946;-64
2021/12/26 11:12:02;;;;;;;66.17;6.93;;;;;;;;;;5051749;28;20482;-64
2021/12/26 11:14:29;;;;;;;62.77;6.77;;;;;;;;;;5051980;28;20489;-65
2021/12/26 11:16:56;;;;;;;62.30;6.60;;;;;;;;;;5065204;28;20454;-64
2021/12/26 11:19:41;;;;;;;64.03;7.40;;;;;;;;;;5071681;28;20476;-65
2021/12/26 11:22:09;;;;;;;62.53;6.30;;;;;;;;;;5071804;28;20482;-65
2021/12/26 11:24:36;;;;;;;65.40;7.97;;;;;;;;;;5071530;28;20531;-64
2021/12/26 11:27:04;;;;;;;63.03;6.53;;;;;;;;;;5071793;28;20535;-64
2021/12/26 11:29:32;;;;;;;65.70;8.10;;;;;;;;;;5071373;28;20458;-65
2021/12/26 11:31:59;;;;;;;63.20;6.80;;;;;;;;;;5071762;28;20474;-65
2021/12/26 11:34:27;;;;;;;63.97;7.13;;;;;;;;;;5071675;28;20926;-65
2021/12/26 11:36:55;;;;;;;65.17;7.70;;;;;;;;;;5071578;28;20451;-65
2021/12/26 11:39:24;;;;;;;64.90;8.10;;;;;;;;;;5071512;28;20536;-64
2021/12/26 11:41:56;;;;;;;63.30;6.87;;;;;;;;;;5071525;28;20560;-64
2021/12/26 11:44:46;;;;;;;62.47;7.10;;;;;;;;;;5071762;28;20442;-65
2021/12/26 11:47:36;;;;;;;64.00;8.10;;;;;;;;;;5071189;28;20582;-65
2021/12/26 11:50:08;;;;;;;68.07;9.07;;;;;;;;;;5051967;28;20466;-65
2021/12/26 11:52:51;;;;;;;63.57;6.83;;;;;;;;;;5051325;28;20451;-66
2021/12/26 11:55:25;;;;;;;63.47;6.80;;;;;;;;;;5051451;28;20482;-64
2021/12/26 11:58:12;;;;;;;63.47;6.70;;;;;;;;;;5051335;28;20472;-64
2021/12/26 12:00:41;;;;;;;64.40;6.60;;;;;;;;;;5055452;28;20470;-64
2021/12/26 12:03:18;;;;;;;62.20;6.70;;;;;;;;;;5055699;28;20474;-65
2021/12/26 12:05:45;;;;;;;62.30;5.73;;;;;;;;;;5055669;28;20204;-65
2021/12/26 12:08:13;;;;;;;62.93;6.83;;;;;;;;;;5055273;28;20822;-65
2021/12/26 12:10:48;;;;;;;61.30;5.80;;;;;;;;;;5055187;28;20554;-64
2021/12/26 12:13:27;;;;;;;64.88;7.70;;;;;;;;;;5055061;28;20459;-65
2021/12/26 12:15:55;;;;;;;62.57;5.97;;;;;;;;;;5055354;28;20664;-65
2021/12/26 12:18:23;;;;;;;62.80;6.37;;;;;;;;;;5054893;28;20534;-64
2021/12/26 12:21:07;;;;;;;63.00;6.30;;;;;;;;;;5059954;28;20553;-65
2021/12/26 12:23:34;;;;;;;62.17;5.87;;;;;;;;;;5075181;28;20442;-64
2021/12/26 12:26:03;;;;;;;68.97;7.97;;;;;;;;;;5074914;28;20453;-64
2021/12/26 12:28:31;;;;;;;70.90;9.17;;;;;;;;;;5074942;28;20443;-65
2021/12/26 12:31:15;;;;;;;62.07;6.50;;;;;;;;;;5075040;28;20476;-64
2021/12/26 12:33:43;;;;;;;67.57;8.73;;;;;;;;;;5075020;28;20457;-65
2021/12/26 12:36:11;;;;;;;62.05;6.55;;;;;;;;;;5074664;28;20518;-65
2021/12/26 12:38:40;;;;;;;77.60;6.37;;;;;;;;;;5074783;28;20201;-65
2021/12/26 12:41:12;;;;;;;61.50;6.03;;;;;;;;;;5074917;28;20532;-64
2021/12/26 12:43:44;;;;;;;62.30;5.80;;;;;;;;;;5075160;28;20853;-63
2021/12/26 12:46:12;;;;;;;60.67;5.30;;;;;;;;;;5074700;28;20937;-62
2021/12/26 12:48:41;;;;;;;61.73;5.80;;;;;;;;;;5074202;28;20447;-63
2021/12/26 12:51:27;;;;;;;61.27;5.57;;;;;;;;;;5074762;28;20986;-62
2021/12/26 12:53:55;;;;;;;85.93;11.30;;;;;;;;;;5072777;28;20464;-63
2021/12/26 12:56:47;;;;;;;81.50;10.60;;;;;;;;;;5074508;28;20458;-64
2021/12/26 12:59:32;;;;;;;70.37;7.63;;;;;;;;;;5074080;28;20610;-63
2021/12/26 13:02:01;;;;;;;66.07;7.70;;;;;;;;;;5074554;28;20466;-63
2021/12/26 13:04:29;;;;;;;65.25;7.13;;;;;;;;;;5074227;28;20530;-62
2021/12/26 13:06:58;;;;;;;61.40;5.90;;;;;;;;;;5074430;28;20465;-64
2021/12/26 13:09:26;;;;;;;64.10;6.23;;;;;;;;;;5073801;28;20978;-63
2021/12/26 13:11:58;;;;;;;61.00;5.40;;;;;;;;;;5073154;28;20486;-64
2021/12/26 13:14:35;;;;;;;60.10;5.47;;;;;;;;;;5073959;28;20492;-63
2021/12/26 13:17:02;;;;;;;61.53;5.27;;;;;;;;;;5074075;28;20496;-63
2021/12/26 13:19:29;;;;;;;64.23;6.83;;;;;;;;;;5073176;28;20549;-63
2021/12/26 13:21:56;;;;;;;61.03;5.57;;;;;;;;;;5074054;28;20550;-62
2021/12/26 13:24:28;;;;;;;57.22;5.20;;;;;;;;;;5074271;28;20201;-65
2021/12/26 13:26:57;;;;;;;61.30;5.70;;;;;;;;;;5074182;28;20218;-64
2021/12/26 13:29:24;;;;;;;62.00;5.80;;;;;;;;;;5073851;28;20448;-64
2021/12/26 13:31:51;;;;;;;57.75;5.40;;;;;;;;;;5073884;28;20469;-65
2021/12/26 13:34:19;;;;;;;61.30;5.23;;;;;;;;;;5073849;28;20303;-65
2021/12/26 13:36:46;;;;;;;60.77;5.37;;;;;;;;;;5073671;28;20526;-65
2021/12/26 13:39:18;;;;;;;61.67;5.07;;;;;;;;;;5073530;28;20449;-65
2021/12/26 13:41:46;;;;;;;60.77;5.40;;;;;;;;;;5073738;28;20463;-65
2021/12/26 13:44:14;;;;;;;61.07;5.50;;;;;;;;;;5073741;28;20499;-64
2021/12/26 13:46:42;;;;;;;66.77;10.00;;;;;;;;;;5073699;28;20515;-65
2021/12/26 13:49:11;;;;;;;69.20;9.03;;;;;;;;;;5073174;28;20464;-63
2021/12/26 13:51:39;;;;;;;60.33;5.57;;;;;;;;;;5073490;28;21002;-66
2021/12/26 13:54:08;;;;;;;60.93;6.00;;;;;;;;;;5070681;28;20453;-65
2021/12/26 13:56:45;;;;;;;61.50;6.20;;;;;;;;;;5073499;28;20482;-65
2021/12/26 13:59:27;;;;;;;60.17;5.30;;;;;;;;;;5073156;28;20446;-63
2021/12/26 14:01:55;;;;;;;60.30;5.60;;;;;;;;;;5073577;28;20472;-63
2021/12/26 14:04:24;;;;;;;59.77;5.30;;;;;;;;;;5073462;28;20446;-64
2021/12/26 14:06:51;;;;;;;62.50;6.27;;;;;;;;;;5073361;28;20529;-64
2021/12/26 14:09:18;;;;;;;61.80;6.18;;;;;;;;;;5072943;28;20415;-63
2021/12/26 14:11:45;;;;;;;60.83;5.83;;;;;;;;;;5072960;28;20853;-64
2021/12/26 14:14:12;;;;;;;61.10;6.20;;;;;;;;;;5072810;28;20969;-65
2021/12/26 14:16:42;;;;;;;61.17;6.03;;;;;;;;;;5073094;28;20484;-64
2021/12/26 14:19:12;;;;;;;61.07;5.80;;;;;;;;;;5072599;28;20455;-64
2021/12/26 14:21:43;;;;;;;66.28;7.60;;;;;;;;;;5072370;28;20464;-65
2021/12/26 14:24:10;;;;;;;61.20;6.23;;;;;;;;;;5072772;28;20244;-65
2021/12/26 14:26:39;;;;;;;62.90;6.43;;;;;;;;;;5072332;28;20533;-65
2021/12/26 14:29:08;;;;;;;67.80;12.00;;;;;;;;;;5072682;28;20454;-66
2021/12/26 14:31:36;;;;;;;64.67;9.80;;;;;;;;;;5072464;28;20478;-65
2021/12/26 14:34:06;;;;;;;68.53;12.67;;;;;;;;;;5072705;28;20532;-65